sensor_id;sensor_type;location;lat;lon;timestamp;P1;durP1;ratioP1;P2;durP2;ratioP2
31760;SDS011;18335;51.486;7.562;2024-01-15T00:01:48;32.40;;;15.20;;
31760;SDS011;18335;51.486;7.562;2024-01-15T00:04:15;30.23;;;15.57;;
31760;SDS011;18335;51.486;7.562;2024-01-15T00:06:42;29.90;;;15.55;;
31760;SDS011;18335;51.486;7.562;2024-01-15T00:09:09;32.55;;;16.30;;
31760;SDS011;18335;51.486;7.562;2024-01-15T00:11:35;35.83;;;18.02;;
31760;SDS011;18335;51.486;7.562;2024-01-15T00:14:02;37.63;;;18.70;;
31760;SDS011;18335;51.486;7.562;2024-01-15T00:16:29;32.42;;;17.80;;
31760;SDS011;18335;51.486;7.562;2024-01-15T00:18:57;36.67;;;18.45;;
31760;SDS011;18335;51.486;7.562;2024-01-15T00:21:24;39.05;;;19.20;;
31760;SDS011;18335;51.486;7.562;2024-01-15T00:23:52;35.63;;;18.70;;
31760;SDS011;18335;51.486;7.562;2024-01-15T00:26:19;39.22;;;21.05;;
31760;SDS011;18335;51.486;7.562;2024-01-15T00:28:45;36.15;;;20.70;;
31760;SDS011;18335;51.486;7.562;2024-01-15T00:31:12;41.10;;;19.48;;
31760;SDS011;18335;51.486;7.562;2024-01-15T00:33:39;41.40;;;20.63;;
31760;SDS011;18335;51.486;7.562;2024-01-15T00:36:07;39.25;;;20.70;;
31760;SDS011;18335;51.486;7.562;2024-01-15T00:38:34;44.45;;;22.40;;
31760;SDS011;18335;51.486;7.562;2024-01-15T00:41:01;42.28;;;22.55;;
31760;SDS011;18335;51.486;7.562;2024-01-15T00:43:28;40.35;;;20.85;;
31760;SDS011;18335;51.486;7.562;2024-01-15T00:45:54;44.50;;;20.90;;
31760;SDS011;18335;51.486;7.562;2024-01-15T00:48:21;43.58;;;21.27;;
31760;SDS011;18335;51.486;7.562;2024-01-15T00:50:48;38.25;;;19.88;;
31760;SDS011;18335;51.486;7.562;2024-01-15T00:53:16;44.35;;;22.83;;
31760;SDS011;18335;51.486;7.562;2024-01-15T00:55:42;45.05;;;21.83;;
31760;SDS011;18335;51.486;7.562;2024-01-15T00:58:10;43.67;;;21.77;;
31760;SDS011;18335;51.486;7.562;2024-01-15T01:00:36;36.90;;;20.98;;
31760;SDS011;18335;51.486;7.562;2024-01-15T01:03:03;42.05;;;21.48;;
31760;SDS011;18335;51.486;7.562;2024-01-15T01:05:30;43.13;;;21.40;;
31760;SDS011;18335;51.486;7.562;2024-01-15T01:07:57;40.78;;;22.15;;
31760;SDS011;18335;51.486;7.562;2024-01-15T01:10:25;36.28;;;20.23;;
31760;SDS011;18335;51.486;7.562;2024-01-15T01:12:53;42.22;;;23.05;;
31760;SDS011;18335;51.486;7.562;2024-01-15T01:15:20;41.15;;;22.88;;
31760;SDS011;18335;51.486;7.562;2024-01-15T01:17:46;40.50;;;21.30;;
31760;SDS011;18335;51.486;7.562;2024-01-15T01:20:13;42.20;;;22.50;;
31760;SDS011;18335;51.486;7.562;2024-01-15T01:22:40;40.30;;;21.65;;
31760;SDS011;18335;51.486;7.562;2024-01-15T01:25:07;40.55;;;21.70;;
31760;SDS011;18335;51.486;7.562;2024-01-15T01:27:36;42.65;;;22.23;;
31760;SDS011;18335;51.486;7.562;2024-01-15T01:30:03;38.97;;;21.92;;
31760;SDS011;18335;51.486;7.562;2024-01-15T01:32:31;40.15;;;21.42;;
31760;SDS011;18335;51.486;7.562;2024-01-15T01:34:57;42.47;;;22.50;;
31760;SDS011;18335;51.486;7.562;2024-01-15T01:37:24;41.90;;;22.25;;
31760;SDS011;18335;51.486;7.562;2024-01-15T01:39:51;36.00;;;20.85;;
31760;SDS011;18335;51.486;7.562;2024-01-15T01:42:17;41.97;;;22.00;;
31760;SDS011;18335;51.486;7.562;2024-01-15T01:44:45;48.55;;;22.70;;
31760;SDS011;18335;51.486;7.562;2024-01-15T01:47:12;41.13;;;23.02;;
31760;SDS011;18335;51.486;7.562;2024-01-15T01:49:40;39.28;;;20.40;;
31760;SDS011;18335;51.486;7.562;2024-01-15T01:52:08;46.95;;;21.67;;
31760;SDS011;18335;51.486;7.562;2024-01-15T01:54:35;42.83;;;21.70;;
31760;SDS011;18335;51.486;7.562;2024-01-15T01:57:04;43.58;;;21.77;;
31760;SDS011;18335;51.486;7.562;2024-01-15T01:59:32;38.95;;;20.25;;
31760;SDS011;18335;51.486;7.562;2024-01-15T02:02:02;38.60;;;19.40;;
31760;SDS011;18335;51.486;7.562;2024-01-15T02:04:30;45.63;;;23.10;;
31760;SDS011;18335;51.486;7.562;2024-01-15T02:06:58;40.90;;;19.52;;
31760;SDS011;18335;51.486;7.562;2024-01-15T02:09:25;39.03;;;20.60;;
31760;SDS011;18335;51.486;7.562;2024-01-15T02:11:52;33.90;;;18.67;;
31760;SDS011;18335;51.486;7.562;2024-01-15T02:14:19;37.85;;;19.92;;
31760;SDS011;18335;51.486;7.562;2024-01-15T02:16:47;42.25;;;20.08;;
31760;SDS011;18335;51.486;7.562;2024-01-15T02:19:18;40.30;;;19.85;;
31760;SDS011;18335;51.486;7.562;2024-01-15T02:21:44;31.58;;;17.02;;
31760;SDS011;18335;51.486;7.562;2024-01-15T02:24:13;32.05;;;17.90;;
31760;SDS011;18335;51.486;7.562;2024-01-15T02:26:40;35.60;;;18.58;;
31760;SDS011;18335;51.486;7.562;2024-01-15T02:29:07;35.17;;;17.08;;
31760;SDS011;18335;51.486;7.562;2024-01-15T02:31:34;39.25;;;18.70;;
31760;SDS011;18335;51.486;7.562;2024-01-15T02:34:01;35.28;;;19.30;;
31760;SDS011;18335;51.486;7.562;2024-01-15T02:36:28;38.70;;;19.70;;
31760;SDS011;18335;51.486;7.562;2024-01-15T02:38:54;38.00;;;18.40;;
31760;SDS011;18335;51.486;7.562;2024-01-15T02:41:22;34.70;;;17.42;;
31760;SDS011;18335;51.486;7.562;2024-01-15T02:43:49;37.58;;;17.92;;
31760;SDS011;18335;51.486;7.562;2024-01-15T02:46:16;41.55;;;18.75;;
31760;SDS011;18335;51.486;7.562;2024-01-15T02:48:43;37.58;;;16.92;;
31760;SDS011;18335;51.486;7.562;2024-01-15T02:51:09;34.95;;;18.77;;
31760;SDS011;18335;51.486;7.562;2024-01-15T02:53:36;36.58;;;17.58;;
31760;SDS011;18335;51.486;7.562;2024-01-15T02:56:03;39.90;;;19.00;;
31760;SDS011;18335;51.486;7.562;2024-01-15T02:58:31;35.70;;;18.55;;
31760;SDS011;18335;51.486;7.562;2024-01-15T03:00:58;38.92;;;17.83;;
31760;SDS011;18335;51.486;7.562;2024-01-15T03:03:25;42.05;;;17.50;;
31760;SDS011;18335;51.486;7.562;2024-01-15T03:05:52;35.05;;;17.15;;
31760;SDS011;18335;51.486;7.562;2024-01-15T03:08:19;32.97;;;18.05;;
31760;SDS011;18335;51.486;7.562;2024-01-15T03:10:47;31.85;;;17.23;;
31760;SDS011;18335;51.486;7.562;2024-01-15T03:13:14;34.28;;;17.40;;
31760;SDS011;18335;51.486;7.562;2024-01-15T03:15:43;36.20;;;17.98;;
31760;SDS011;18335;51.486;7.562;2024-01-15T03:18:09;38.13;;;18.77;;
31760;SDS011;18335;51.486;7.562;2024-01-15T03:20:36;33.72;;;16.55;;
31760;SDS011;18335;51.486;7.562;2024-01-15T03:23:03;32.22;;;17.73;;
31760;SDS011;18335;51.486;7.562;2024-01-15T03:25:30;34.45;;;16.83;;
31760;SDS011;18335;51.486;7.562;2024-01-15T03:27:56;31.00;;;16.35;;
31760;SDS011;18335;51.486;7.562;2024-01-15T03:30:23;33.47;;;17.55;;
31760;SDS011;18335;51.486;7.562;2024-01-15T03:32:51;33.58;;;16.25;;
31760;SDS011;18335;51.486;7.562;2024-01-15T03:35:18;34.22;;;15.77;;
31760;SDS011;18335;51.486;7.562;2024-01-15T03:37:44;33.33;;;16.75;;
31760;SDS011;18335;51.486;7.562;2024-01-15T03:40:11;33.75;;;15.88;;
31760;SDS011;18335;51.486;7.562;2024-01-15T03:42:38;33.33;;;16.05;;
31760;SDS011;18335;51.486;7.562;2024-01-15T03:45:05;35.15;;;17.17;;
31760;SDS011;18335;51.486;7.562;2024-01-15T03:47:32;35.28;;;16.30;;
31760;SDS011;18335;51.486;7.562;2024-01-15T03:50:00;29.88;;;15.95;;
31760;SDS011;18335;51.486;7.562;2024-01-15T03:52:27;31.35;;;17.23;;
31760;SDS011;18335;51.486;7.562;2024-01-15T03:54:53;28.08;;;16.27;;
31760;SDS011;18335;51.486;7.562;2024-01-15T03:57:21;32.53;;;15.73;;
31760;SDS011;18335;51.486;7.562;2024-01-15T03:59:47;36.20;;;16.35;;
31760;SDS011;18335;51.486;7.562;2024-01-15T04:02:14;30.60;;;16.73;;
31760;SDS011;18335;51.486;7.562;2024-01-15T04:04:42;31.73;;;15.50;;
31760;SDS011;18335;51.486;7.562;2024-01-15T04:07:10;33.03;;;16.60;;
31760;SDS011;18335;51.486;7.562;2024-01-15T04:09:37;32.03;;;16.35;;
31760;SDS011;18335;51.486;7.562;2024-01-15T04:12:04;30.42;;;16.30;;
31760;SDS011;18335;51.486;7.562;2024-01-15T04:14:31;37.22;;;17.15;;
31760;SDS011;18335;51.486;7.562;2024-01-15T04:16:58;31.00;;;14.13;;
31760;SDS011;18335;51.486;7.562;2024-01-15T04:19:25;28.63;;;14.98;;
31760;SDS011;18335;51.486;7.562;2024-01-15T04:21:51;30.65;;;14.93;;
31760;SDS011;18335;51.486;7.562;2024-01-15T04:24:19;27.42;;;14.52;;
31760;SDS011;18335;51.486;7.562;2024-01-15T04:26:46;27.95;;;15.05;;
31760;SDS011;18335;51.486;7.562;2024-01-15T04:29:13;29.63;;;13.50;;
31760;SDS011;18335;51.486;7.562;2024-01-15T04:31:39;36.10;;;14.88;;
31760;SDS011;18335;51.486;7.562;2024-01-15T04:34:06;26.20;;;14.23;;
31760;SDS011;18335;51.486;7.562;2024-01-15T04:36:38;22.90;;;12.98;;
31760;SDS011;18335;51.486;7.562;2024-01-15T04:39:05;29.15;;;14.25;;
31760;SDS011;18335;51.486;7.562;2024-01-15T04:41:33;25.70;;;13.65;;
31760;SDS011;18335;51.486;7.562;2024-01-15T04:44:00;24.08;;;11.65;;
31760;SDS011;18335;51.486;7.562;2024-01-15T04:46:26;25.20;;;11.82;;
31760;SDS011;18335;51.486;7.562;2024-01-15T04:48:53;29.48;;;12.20;;
31760;SDS011;18335;51.486;7.562;2024-01-15T04:51:20;22.05;;;12.57;;
31760;SDS011;18335;51.486;7.562;2024-01-15T04:53:46;21.08;;;12.10;;
31760;SDS011;18335;51.486;7.562;2024-01-15T04:56:13;29.75;;;12.77;;
31760;SDS011;18335;51.486;7.562;2024-01-15T04:58:41;31.73;;;11.10;;
31760;SDS011;18335;51.486;7.562;2024-01-15T05:01:08;23.63;;;11.88;;
31760;SDS011;18335;51.486;7.562;2024-01-15T05:03:35;20.35;;;10.88;;
31760;SDS011;18335;51.486;7.562;2024-01-15T05:06:02;26.83;;;11.45;;
31760;SDS011;18335;51.486;7.562;2024-01-15T05:08:29;27.73;;;12.13;;
31760;SDS011;18335;51.486;7.562;2024-01-15T05:10:56;23.98;;;11.07;;
31760;SDS011;18335;51.486;7.562;2024-01-15T05:13:22;22.75;;;11.20;;
31760;SDS011;18335;51.486;7.562;2024-01-15T05:15:50;23.52;;;12.25;;
31760;SDS011;18335;51.486;7.562;2024-01-15T05:18:17;25.10;;;12.00;;
31760;SDS011;18335;51.486;7.562;2024-01-15T05:20:44;23.67;;;11.73;;
31760;SDS011;18335;51.486;7.562;2024-01-15T05:23:11;23.00;;;11.02;;
31760;SDS011;18335;51.486;7.562;2024-01-15T05:25:39;24.75;;;11.40;;
31760;SDS011;18335;51.486;7.562;2024-01-15T05:28:06;21.13;;;10.95;;
31760;SDS011;18335;51.486;7.562;2024-01-15T05:30:33;22.00;;;11.05;;
31760;SDS011;18335;51.486;7.562;2024-01-15T05:33:01;32.95;;;11.20;;
31760;SDS011;18335;51.486;7.562;2024-01-15T05:35:28;20.70;;;11.18;;
31760;SDS011;18335;51.486;7.562;2024-01-15T05:37:55;23.52;;;11.25;;
31760;SDS011;18335;51.486;7.562;2024-01-15T05:40:21;24.83;;;12.23;;
31760;SDS011;18335;51.486;7.562;2024-01-15T05:42:48;22.00;;;11.48;;
31760;SDS011;18335;51.486;7.562;2024-01-15T05:45:15;23.02;;;12.50;;
31760;SDS011;18335;51.486;7.562;2024-01-15T05:47:41;28.38;;;12.57;;
31760;SDS011;18335;51.486;7.562;2024-01-15T05:50:10;28.17;;;12.48;;
31760;SDS011;18335;51.486;7.562;2024-01-15T05:52:37;25.00;;;12.70;;
31760;SDS011;18335;51.486;7.562;2024-01-15T05:55:05;22.08;;;11.55;;
31760;SDS011;18335;51.486;7.562;2024-01-15T05:57:32;22.15;;;12.00;;
31760;SDS011;18335;51.486;7.562;2024-01-15T05:59:59;25.60;;;13.25;;
31760;SDS011;18335;51.486;7.562;2024-01-15T06:02:26;25.63;;;11.68;;
31760;SDS011;18335;51.486;7.562;2024-01-15T06:04:53;28.02;;;12.52;;
31760;SDS011;18335;51.486;7.562;2024-01-15T06:07:21;23.90;;;12.55;;
31760;SDS011;18335;51.486;7.562;2024-01-15T06:09:48;22.05;;;11.85;;
31760;SDS011;18335;51.486;7.562;2024-01-15T06:12:15;22.55;;;11.95;;
31760;SDS011;18335;51.486;7.562;2024-01-15T06:14:42;21.80;;;11.02;;
31760;SDS011;18335;51.486;7.562;2024-01-15T06:17:09;22.15;;;11.63;;
31760;SDS011;18335;51.486;7.562;2024-01-15T06:19:36;26.75;;;11.73;;
31760;SDS011;18335;51.486;7.562;2024-01-15T06:22:03;22.13;;;13.73;;
31760;SDS011;18335;51.486;7.562;2024-01-15T06:24:31;24.20;;;12.35;;
31760;SDS011;18335;51.486;7.562;2024-01-15T06:26:58;34.67;;;12.65;;
31760;SDS011;18335;51.486;7.562;2024-01-15T06:29:25;24.92;;;10.48;;
31760;SDS011;18335;51.486;7.562;2024-01-15T06:31:53;24.75;;;12.40;;
31760;SDS011;18335;51.486;7.562;2024-01-15T06:34:19;20.13;;;10.65;;
31760;SDS011;18335;51.486;7.562;2024-01-15T06:36:46;27.15;;;11.38;;
31760;SDS011;18335;51.486;7.562;2024-01-15T06:39:13;19.95;;;11.32;;
31760;SDS011;18335;51.486;7.562;2024-01-15T06:41:41;23.90;;;10.50;;
31760;SDS011;18335;51.486;7.562;2024-01-15T06:44:09;20.17;;;11.95;;
31760;SDS011;18335;51.486;7.562;2024-01-15T06:46:36;22.98;;;12.05;;
31760;SDS011;18335;51.486;7.562;2024-01-15T06:49:03;20.85;;;11.38;;
31760;SDS011;18335;51.486;7.562;2024-01-15T06:51:30;27.00;;;11.02;;
31760;SDS011;18335;51.486;7.562;2024-01-15T06:53:56;24.92;;;13.23;;
31760;SDS011;18335;51.486;7.562;2024-01-15T06:56:23;24.42;;;12.15;;
31760;SDS011;18335;51.486;7.562;2024-01-15T06:58:51;19.30;;;10.88;;
31760;SDS011;18335;51.486;7.562;2024-01-15T07:01:18;25.38;;;11.45;;
31760;SDS011;18335;51.486;7.562;2024-01-15T07:03:45;25.85;;;11.25;;
31760;SDS011;18335;51.486;7.562;2024-01-15T07:06:12;21.83;;;11.98;;
31760;SDS011;18335;51.486;7.562;2024-01-15T07:08:39;20.58;;;11.27;;
31760;SDS011;18335;51.486;7.562;2024-01-15T07:11:06;28.83;;;11.30;;
31760;SDS011;18335;51.486;7.562;2024-01-15T07:13:34;23.73;;;11.93;;
31760;SDS011;18335;51.486;7.562;2024-01-15T07:16:03;19.92;;;11.02;;
31760;SDS011;18335;51.486;7.562;2024-01-15T07:18:30;25.38;;;11.90;;
31760;SDS011;18335;51.486;7.562;2024-01-15T07:20:57;26.33;;;13.18;;
31760;SDS011;18335;51.486;7.562;2024-01-15T07:23:23;29.05;;;11.38;;
31760;SDS011;18335;51.486;7.562;2024-01-15T07:25:50;26.65;;;12.20;;
31760;SDS011;18335;51.486;7.562;2024-01-15T07:28:18;26.45;;;14.00;;
31760;SDS011;18335;51.486;7.562;2024-01-15T07:30:45;27.90;;;12.75;;
31760;SDS011;18335;51.486;7.562;2024-01-15T07:33:13;25.70;;;12.15;;
31760;SDS011;18335;51.486;7.562;2024-01-15T07:35:40;24.55;;;13.77;;
31760;SDS011;18335;51.486;7.562;2024-01-15T07:38:06;21.55;;;12.20;;
31760;SDS011;18335;51.486;7.562;2024-01-15T07:40:33;28.85;;;12.88;;
31760;SDS011;18335;51.486;7.562;2024-01-15T07:43:00;25.35;;;11.48;;
31760;SDS011;18335;51.486;7.562;2024-01-15T07:45:27;22.33;;;13.00;;
31760;SDS011;18335;51.486;7.562;2024-01-15T07:47:53;17.33;;;10.20;;
31760;SDS011;18335;51.486;7.562;2024-01-15T07:50:22;22.83;;;12.38;;
31760;SDS011;18335;51.486;7.562;2024-01-15T07:52:48;21.48;;;11.98;;
31760;SDS011;18335;51.486;7.562;2024-01-15T07:55:15;23.40;;;11.57;;
31760;SDS011;18335;51.486;7.562;2024-01-15T07:57:42;19.70;;;9.75;;
31760;SDS011;18335;51.486;7.562;2024-01-15T08:00:09;20.90;;;11.15;;
31760;SDS011;18335;51.486;7.562;2024-01-15T08:02:36;19.23;;;10.55;;
31760;SDS011;18335;51.486;7.562;2024-01-15T08:05:03;21.17;;;10.98;;
31760;SDS011;18335;51.486;7.562;2024-01-15T08:07:31;18.58;;;10.38;;
31760;SDS011;18335;51.486;7.562;2024-01-15T08:09:57;19.73;;;7.85;;
31760;SDS011;18335;51.486;7.562;2024-01-15T08:12:24;15.65;;;7.93;;
31760;SDS011;18335;51.486;7.562;2024-01-15T08:14:51;13.52;;;7.72;;
31760;SDS011;18335;51.486;7.562;2024-01-15T08:17:17;17.90;;;8.52;;
31760;SDS011;18335;51.486;7.562;2024-01-15T08:19:44;14.55;;;7.93;;
31760;SDS011;18335;51.486;7.562;2024-01-15T08:22:11;15.82;;;7.30;;
31760;SDS011;18335;51.486;7.562;2024-01-15T08:24:39;15.00;;;6.53;;
31760;SDS011;18335;51.486;7.562;2024-01-15T08:27:06;13.32;;;6.75;;
31760;SDS011;18335;51.486;7.562;2024-01-15T08:29:33;15.18;;;7.78;;
31760;SDS011;18335;51.486;7.562;2024-01-15T08:32:00;13.82;;;5.97;;
31760;SDS011;18335;51.486;7.562;2024-01-15T08:34:26;10.52;;;5.85;;
31760;SDS011;18335;51.486;7.562;2024-01-15T08:36:53;14.80;;;6.43;;
31760;SDS011;18335;51.486;7.562;2024-01-15T08:39:20;14.90;;;7.88;;
31760;SDS011;18335;51.486;7.562;2024-01-15T08:41:48;18.15;;;6.85;;
31760;SDS011;18335;51.486;7.562;2024-01-15T08:44:14;13.93;;;6.85;;
31760;SDS011;18335;51.486;7.562;2024-01-15T08:46:41;12.60;;;7.65;;
31760;SDS011;18335;51.486;7.562;2024-01-15T08:49:08;17.38;;;9.32;;
31760;SDS011;18335;51.486;7.562;2024-01-15T08:51:35;19.38;;;10.18;;
31760;SDS011;18335;51.486;7.562;2024-01-15T08:54:03;16.98;;;9.32;;
31760;SDS011;18335;51.486;7.562;2024-01-15T08:56:30;19.80;;;10.63;;
31760;SDS011;18335;51.486;7.562;2024-01-15T08:58:58;19.05;;;11.18;;
31760;SDS011;18335;51.486;7.562;2024-01-15T09:01:25;16.88;;;8.52;;
31760;SDS011;18335;51.486;7.562;2024-01-15T09:03:51;19.17;;;9.95;;
31760;SDS011;18335;51.486;7.562;2024-01-15T09:06:18;16.23;;;9.07;;
31760;SDS011;18335;51.486;7.562;2024-01-15T09:08:46;14.20;;;8.07;;
31760;SDS011;18335;51.486;7.562;2024-01-15T09:11:12;14.73;;;8.30;;
31760;SDS011;18335;51.486;7.562;2024-01-15T09:13:39;13.88;;;8.27;;
31760;SDS011;18335;51.486;7.562;2024-01-15T09:16:07;15.15;;;8.32;;
31760;SDS011;18335;51.486;7.562;2024-01-15T09:18:34;14.38;;;7.95;;
31760;SDS011;18335;51.486;7.562;2024-01-15T09:21:01;15.68;;;8.07;;
31760;SDS011;18335;51.486;7.562;2024-01-15T09:23:30;16.67;;;8.25;;
31760;SDS011;18335;51.486;7.562;2024-01-15T09:25:57;15.02;;;8.25;;
31760;SDS011;18335;51.486;7.562;2024-01-15T09:28:23;13.77;;;8.18;;
31760;SDS011;18335;51.486;7.562;2024-01-15T09:30:50;13.60;;;8.27;;
31760;SDS011;18335;51.486;7.562;2024-01-15T09:33:18;15.68;;;8.85;;
31760;SDS011;18335;51.486;7.562;2024-01-15T09:35:45;14.38;;;8.15;;
31760;SDS011;18335;51.486;7.562;2024-01-15T09:38:12;15.25;;;8.40;;
31760;SDS011;18335;51.486;7.562;2024-01-15T09:40:39;18.55;;;8.88;;
31760;SDS011;18335;51.486;7.562;2024-01-15T09:43:11;15.13;;;9.45;;
31760;SDS011;18335;51.486;7.562;2024-01-15T09:45:39;16.88;;;9.75;;
31760;SDS011;18335;51.486;7.562;2024-01-15T09:48:06;14.27;;;8.43;;
31760;SDS011;18335;51.486;7.562;2024-01-15T09:50:35;12.40;;;7.50;;
31760;SDS011;18335;51.486;7.562;2024-01-15T09:53:02;14.43;;;9.32;;
31760;SDS011;18335;51.486;7.562;2024-01-15T09:55:30;15.60;;;9.38;;
31760;SDS011;18335;51.486;7.562;2024-01-15T09:57:57;17.23;;;9.07;;
31760;SDS011;18335;51.486;7.562;2024-01-15T10:00:27;15.20;;;8.77;;
31760;SDS011;18335;51.486;7.562;2024-01-15T10:02:56;16.30;;;9.20;;
31760;SDS011;18335;51.486;7.562;2024-01-15T10:05:23;13.18;;;7.45;;
31760;SDS011;18335;51.486;7.562;2024-01-15T10:07:51;17.25;;;9.00;;
31760;SDS011;18335;51.486;7.562;2024-01-15T10:10:20;15.48;;;8.35;;
31760;SDS011;18335;51.486;7.562;2024-01-15T10:12:48;14.68;;;8.93;;
31760;SDS011;18335;51.486;7.562;2024-01-15T10:15:15;16.20;;;8.05;;
31760;SDS011;18335;51.486;7.562;2024-01-15T10:17:43;11.85;;;6.47;;
31760;SDS011;18335;51.486;7.562;2024-01-15T10:20:10;12.35;;;7.07;;
31760;SDS011;18335;51.486;7.562;2024-01-15T10:22:39;11.35;;;7.07;;
31760;SDS011;18335;51.486;7.562;2024-01-15T10:25:10;11.75;;;5.82;;
31760;SDS011;18335;51.486;7.562;2024-01-15T10:27:38;14.20;;;6.85;;
31760;SDS011;18335;51.486;7.562;2024-01-15T10:30:05;10.57;;;5.43;;
31760;SDS011;18335;51.486;7.562;2024-01-15T10:32:34;10.82;;;5.35;;
31760;SDS011;18335;51.486;7.562;2024-01-15T10:35:01;10.60;;;5.70;;
31760;SDS011;18335;51.486;7.562;2024-01-15T10:37:28;13.15;;;5.70;;
31760;SDS011;18335;51.486;7.562;2024-01-15T10:40:00;11.27;;;6.07;;
31760;SDS011;18335;51.486;7.562;2024-01-15T10:42:30;14.15;;;5.75;;
31760;SDS011;18335;51.486;7.562;2024-01-15T10:44:57;9.80;;;5.55;;
31760;SDS011;18335;51.486;7.562;2024-01-15T10:47:24;11.07;;;6.05;;
31760;SDS011;18335;51.486;7.562;2024-01-15T10:49:50;12.82;;;6.70;;
31760;SDS011;18335;51.486;7.562;2024-01-15T10:52:19;13.18;;;6.60;;
31760;SDS011;18335;51.486;7.562;2024-01-15T10:54:45;11.82;;;6.05;;
31760;SDS011;18335;51.486;7.562;2024-01-15T10:57:13;11.13;;;6.00;;
31760;SDS011;18335;51.486;7.562;2024-01-15T10:59:43;11.27;;;5.88;;
31760;SDS011;18335;51.486;7.562;2024-01-15T11:02:13;12.68;;;6.50;;
31760;SDS011;18335;51.486;7.562;2024-01-15T11:04:41;12.30;;;6.43;;
31760;SDS011;18335;51.486;7.562;2024-01-15T11:07:08;16.63;;;7.05;;
31760;SDS011;18335;51.486;7.562;2024-01-15T11:09:37;16.45;;;9.30;;
31760;SDS011;18335;51.486;7.562;2024-01-15T11:12:07;13.98;;;7.05;;
31760;SDS011;18335;51.486;7.562;2024-01-15T11:14:38;17.08;;;8.15;;
31760;SDS011;18335;51.486;7.562;2024-01-15T11:17:10;29.83;;;15.15;;
31760;SDS011;18335;51.486;7.562;2024-01-15T11:19:37;15.45;;;6.93;;
31760;SDS011;18335;51.486;7.562;2024-01-15T11:22:06;14.55;;;7.60;;
31760;SDS011;18335;51.486;7.562;2024-01-15T11:24:35;13.82;;;6.97;;
31760;SDS011;18335;51.486;7.562;2024-01-15T11:27:03;13.38;;;7.55;;
31760;SDS011;18335;51.486;7.562;2024-01-15T11:29:31;13.02;;;6.55;;
31760;SDS011;18335;51.486;7.562;2024-01-15T11:32:00;14.55;;;7.13;;
31760;SDS011;18335;51.486;7.562;2024-01-15T11:37:26;13.65;;;7.07;;
31760;SDS011;18335;51.486;7.562;2024-01-15T11:39:53;15.70;;;6.55;;
31760;SDS011;18335;51.486;7.562;2024-01-15T11:42:21;12.90;;;7.13;;
31760;SDS011;18335;51.486;7.562;2024-01-15T11:44:49;13.35;;;6.95;;
31760;SDS011;18335;51.486;7.562;2024-01-15T11:47:16;11.77;;;6.18;;
31760;SDS011;18335;51.486;7.562;2024-01-15T11:50:07;13.27;;;6.47;;
31760;SDS011;18335;51.486;7.562;2024-01-15T11:52:35;13.32;;;6.00;;
31760;SDS011;18335;51.486;7.562;2024-01-15T11:55:10;15.02;;;6.80;;
31760;SDS011;18335;51.486;7.562;2024-01-15T11:57:42;16.17;;;7.03;;
31760;SDS011;18335;51.486;7.562;2024-01-15T12:00:12;13.60;;;6.85;;
31760;SDS011;18335;51.486;7.562;2024-01-15T12:02:40;12.93;;;5.88;;
31760;SDS011;18335;51.486;7.562;2024-01-15T12:05:09;14.45;;;6.00;;
31760;SDS011;18335;51.486;7.562;2024-01-15T12:07:38;13.80;;;6.65;;
31760;SDS011;18335;51.486;7.562;2024-01-15T12:10:07;17.45;;;6.07;;
31760;SDS011;18335;51.486;7.562;2024-01-15T12:12:39;14.43;;;6.00;;
31760;SDS011;18335;51.486;7.562;2024-01-15T12:15:15;13.57;;;6.00;;
31760;SDS011;18335;51.486;7.562;2024-01-15T12:17:42;14.48;;;6.05;;
31760;SDS011;18335;51.486;7.562;2024-01-15T12:20:11;11.52;;;5.38;;
31760;SDS011;18335;51.486;7.562;2024-01-15T12:22:38;14.30;;;6.40;;
31760;SDS011;18335;51.486;7.562;2024-01-15T12:25:05;11.32;;;5.10;;
31760;SDS011;18335;51.486;7.562;2024-01-15T12:27:32;12.63;;;6.60;;
31760;SDS011;18335;51.486;7.562;2024-01-15T12:30:00;13.95;;;5.63;;
31760;SDS011;18335;51.486;7.562;2024-01-15T12:32:28;9.63;;;4.13;;
31760;SDS011;18335;51.486;7.562;2024-01-15T12:34:55;10.98;;;5.03;;
31760;SDS011;18335;51.486;7.562;2024-01-15T12:37:24;10.25;;;3.95;;
31760;SDS011;18335;51.486;7.562;2024-01-15T12:39:51;9.05;;;4.28;;
31760;SDS011;18335;51.486;7.562;2024-01-15T12:42:20;9.38;;;4.82;;
31760;SDS011;18335;51.486;7.562;2024-01-15T12:44:48;9.50;;;4.32;;
31760;SDS011;18335;51.486;7.562;2024-01-15T12:47:15;12.52;;;4.40;;
31760;SDS011;18335;51.486;7.562;2024-01-15T12:49:46;14.43;;;5.15;;
31760;SDS011;18335;51.486;7.562;2024-01-15T12:52:13;17.58;;;6.55;;
31760;SDS011;18335;51.486;7.562;2024-01-15T12:54:41;10.82;;;4.82;;
31760;SDS011;18335;51.486;7.562;2024-01-15T12:57:08;12.13;;;4.75;;
31760;SDS011;18335;51.486;7.562;2024-01-15T12:59:35;12.60;;;4.45;;
31760;SDS011;18335;51.486;7.562;2024-01-15T13:02:02;10.38;;;6.00;;
31760;SDS011;18335;51.486;7.562;2024-01-15T13:04:29;12.88;;;5.82;;
31760;SDS011;18335;51.486;7.562;2024-01-15T13:06:55;15.52;;;5.60;;
31760;SDS011;18335;51.486;7.562;2024-01-15T13:09:22;11.55;;;5.55;;
31760;SDS011;18335;51.486;7.562;2024-01-15T13:11:50;11.45;;;5.18;;
31760;SDS011;18335;51.486;7.562;2024-01-15T13:14:18;11.38;;;5.68;;
31760;SDS011;18335;51.486;7.562;2024-01-15T13:16:45;14.73;;;5.38;;
31760;SDS011;18335;51.486;7.562;2024-01-15T13:19:12;10.23;;;4.93;;
31760;SDS011;18335;51.486;7.562;2024-01-15T13:21:38;14.90;;;6.32;;
31760;SDS011;18335;51.486;7.562;2024-01-15T13:24:05;14.05;;;5.28;;
31760;SDS011;18335;51.486;7.562;2024-01-15T13:26:32;8.25;;;4.75;;
31760;SDS011;18335;51.486;7.562;2024-01-15T13:29:00;9.43;;;4.85;;
31760;SDS011;18335;51.486;7.562;2024-01-15T13:31:31;10.82;;;5.10;;
31760;SDS011;18335;51.486;7.562;2024-01-15T13:33:58;8.95;;;5.00;;
31760;SDS011;18335;51.486;7.562;2024-01-15T13:36:25;12.18;;;5.68;;
31760;SDS011;18335;51.486;7.562;2024-01-15T13:38:52;19.50;;;7.80;;
31760;SDS011;18335;51.486;7.562;2024-01-15T13:41:20;10.77;;;5.43;;
31760;SDS011;18335;51.486;7.562;2024-01-15T13:43:52;12.60;;;5.68;;
31760;SDS011;18335;51.486;7.562;2024-01-15T13:46:23;12.00;;;5.15;;
31760;SDS011;18335;51.486;7.562;2024-01-15T13:48:51;10.13;;;5.60;;
31760;SDS011;18335;51.486;7.562;2024-01-15T13:51:18;10.68;;;5.10;;
31760;SDS011;18335;51.486;7.562;2024-01-15T13:53:45;12.35;;;5.07;;
31760;SDS011;18335;51.486;7.562;2024-01-15T13:56:12;9.80;;;4.95;;
31760;SDS011;18335;51.486;7.562;2024-01-15T13:58:39;10.75;;;5.13;;
31760;SDS011;18335;51.486;7.562;2024-01-15T14:01:06;9.40;;;4.82;;
31760;SDS011;18335;51.486;7.562;2024-01-15T14:03:34;9.80;;;4.53;;
31760;SDS011;18335;51.486;7.562;2024-01-15T14:06:01;10.98;;;4.63;;
31760;SDS011;18335;51.486;7.562;2024-01-15T14:08:30;10.13;;;5.20;;
31760;SDS011;18335;51.486;7.562;2024-01-15T14:10:57;11.90;;;4.88;;
31760;SDS011;18335;51.486;7.562;2024-01-15T14:13:24;12.65;;;6.03;;
31760;SDS011;18335;51.486;7.562;2024-01-15T14:15:50;10.63;;;4.72;;
31760;SDS011;18335;51.486;7.562;2024-01-15T14:18:17;15.45;;;5.30;;
31760;SDS011;18335;51.486;7.562;2024-01-15T14:20:45;13.45;;;5.75;;
31760;SDS011;18335;51.486;7.562;2024-01-15T14:23:12;13.88;;;5.45;;
31760;SDS011;18335;51.486;7.562;2024-01-15T14:25:39;9.88;;;4.40;;
31760;SDS011;18335;51.486;7.562;2024-01-15T14:28:06;12.73;;;5.55;;
31760;SDS011;18335;51.486;7.562;2024-01-15T14:30:33;10.25;;;5.10;;
31760;SDS011;18335;51.486;7.562;2024-01-15T14:33:00;16.20;;;5.32;;